createdAt,value
2023-01-18T00:01:36.072Z,102487.66
2023-01-18T00:04:05.080Z,102510.81
2023-01-18T00:06:34.179Z,102476.03
2023-01-18T00:09:02.857Z,102463.50
2023-01-18T00:11:31.850Z,102406.25
2023-01-18T00:14:03.616Z,102487.66
2023-01-18T00:16:32.540Z,102502.69
2023-01-18T00:19:03.642Z,102530.69
2023-01-18T00:21:32.329Z,102516.75
2023-01-18T00:24:01.211Z,102522.34
2023-01-18T00:26:29.931Z,102475.72
2023-01-18T00:29:01.517Z,102507.13
2023-01-18T00:31:30.305Z,102513.69
2023-01-18T00:33:59.132Z,102494.88
2023-01-18T00:36:27.989Z,102528.19
2023-01-18T00:38:56.720Z,102487.19
2023-01-18T00:41:26.449Z,102438.16
2023-01-18T00:43:55.574Z,102392.91
2023-01-18T00:46:28.147Z,102527.88
2023-01-18T00:48:59.649Z,102528.28
2023-01-18T00:51:28.562Z,102489.44
2023-01-18T00:53:57.416Z,102416.09
2023-01-18T00:56:26.258Z,102478.13
2023-01-18T00:58:54.998Z,102498.53
2023-01-18T01:01:25.044Z,102505.03
2023-01-18T01:04:12.097Z,102487.47
2023-01-18T01:06:47.420Z,102470.13
2023-01-18T01:09:25.934Z,102498.59
2023-01-18T01:12:13.239Z,102465.47
2023-01-18T01:15:05.034Z,102466.53
2023-01-18T01:17:55.110Z,102394.03
2023-01-18T01:20:44.259Z,102496.38
2023-01-18T01:23:36.346Z,102508.25
2023-01-18T01:26:07.131Z,102471.88
2023-01-18T01:28:44.935Z,102496.72
2023-01-18T01:31:15.678Z,102497.13
2023-01-18T01:33:45.760Z,102527.28
2023-01-18T01:36:17.178Z,102463.13
2023-01-18T01:38:46.544Z,102499.44
2023-01-18T01:41:20.973Z,102470.31
2023-01-18T01:43:52.037Z,102475.81
2023-01-18T01:46:40.520Z,102476.25
2023-01-18T01:49:14.942Z,102523.56
2023-01-18T01:51:47.367Z,102493.28
2023-01-18T01:54:23.233Z,102516.19
2023-01-18T01:56:53.734Z,102411.31
2023-01-18T01:59:22.879Z,102293.41
2023-01-18T02:01:51.744Z,102486.78
2023-01-18T02:04:20.498Z,102489.47
2023-01-18T02:06:48.944Z,102429.16
2023-01-18T02:09:17.690Z,102530.44
2023-01-18T02:11:46.209Z,102527.34
2023-01-18T02:14:17.412Z,102547.03
2023-01-18T02:17:05.692Z,102543.28
2023-01-18T02:19:49.348Z,102548.22
2023-01-18T02:22:56.486Z,102445.34
2023-01-18T02:25:35.873Z,102547.69
2023-01-18T02:28:17.768Z,102546.81
2023-01-18T02:30:59.087Z,102534.28
2023-01-18T02:33:51.470Z,102473.75
2023-01-18T02:36:32.612Z,102510.19
2023-01-18T02:39:24.016Z,102530.41
2023-01-18T02:42:23.633Z,102498.91
2023-01-18T02:45:10.918Z,102491.63
2023-01-18T02:47:39.814Z,102524.22
2023-01-18T02:50:08.972Z,102437.63
2023-01-18T02:52:48.303Z,102537.91
2023-01-18T02:55:28.943Z,102529.41
2023-01-18T02:58:03.713Z,102524.38
2023-01-18T03:00:35.657Z,102499.66
2023-01-18T03:03:07.052Z,102472.72
2023-01-18T03:05:37.837Z,102413.84
2023-01-18T03:08:19.312Z,102465.91
2023-01-18T03:11:11.564Z,102497.59
2023-01-18T03:14:02.481Z,102533.47
2023-01-18T03:16:40.694Z,102423.41
2023-01-18T03:19:41.974Z,102529.00
2023-01-18T03:22:11.801Z,102502.81
2023-01-18T03:24:41.934Z,102525.41
2023-01-18T03:27:30.074Z,102514.44
2023-01-18T03:30:16.941Z,102510.84
2023-01-18T03:33:04.398Z,102526.34
2023-01-18T03:35:34.017Z,102477.28
2023-01-18T03:38:02.834Z,102496.00
2023-01-18T03:40:32.216Z,102525.59
2023-01-18T03:43:15.760Z,102496.88
2023-01-18T03:45:49.049Z,102376.75
2023-01-18T03:48:18.235Z,102411.69
2023-01-18T03:51:14.246Z,102487.03
2023-01-18T03:54:10.127Z,102479.75
2023-01-18T03:56:57.772Z,102496.09
2023-01-18T03:59:31.304Z,102475.72
2023-01-18T04:02:00.245Z,102533.56
2023-01-18T04:04:28.839Z,102496.81
2023-01-18T04:06:58.795Z,102502.63
2023-01-18T04:09:28.174Z,102528.06
2023-01-18T04:11:56.783Z,102510.94
2023-01-18T04:14:25.599Z,102480.72
2023-01-18T04:16:54.275Z,102524.56
2023-01-18T04:19:22.812Z,102487.56
2023-01-18T04:21:54.326Z,102500.19
2023-01-18T04:24:22.825Z,102547.34
2023-01-18T04:26:51.578Z,102501.94
2023-01-18T04:29:20.206Z,102503.50
2023-01-18T04:31:48.856Z,102495.28
2023-01-18T04:34:17.715Z,102520.97
2023-01-18T04:36:46.223Z,102453.03
2023-01-18T04:39:15.095Z,102460.41
2023-01-18T04:41:43.785Z,102530.16
2023-01-18T04:44:13.659Z,102518.06
2023-01-18T04:46:42.441Z,102518.16
2023-01-18T04:49:16.219Z,102408.31
2023-01-18T04:51:46.769Z,102486.13
2023-01-18T04:54:17.757Z,102479.56
2023-01-18T04:56:46.437Z,102469.00
2023-01-18T04:59:16.901Z,102509.97
2023-01-18T05:01:45.769Z,102344.25
2023-01-18T05:04:14.459Z,102445.63
2023-01-18T05:06:42.953Z,102476.50
2023-01-18T05:09:13.289Z,102475.75
2023-01-18T05:11:42.864Z,102467.59
2023-01-18T05:14:11.459Z,102498.94
2023-01-18T05:16:40.089Z,102479.66
2023-01-18T05:19:09.981Z,102486.69
2023-01-18T05:21:38.577Z,102443.09
2023-01-18T05:24:07.601Z,102513.63
2023-01-18T05:26:37.357Z,102448.72
2023-01-18T05:29:06.015Z,102490.28
2023-01-18T05:31:34.655Z,102482.78
2023-01-18T05:34:03.539Z,102522.59
2023-01-18T05:36:32.336Z,102482.28
2023-01-18T05:39:00.886Z,102482.31
2023-01-18T05:41:29.597Z,102486.53
2023-01-18T05:43:58.335Z,102473.84
2023-01-18T05:46:27.085Z,102501.63
2023-01-18T05:48:59.783Z,102341.06
2023-01-18T05:51:28.659Z,102468.19
2023-01-18T05:53:57.297Z,102488.44
2023-01-18T05:56:26.035Z,102470.22
2023-01-18T05:58:54.806Z,102448.88
2023-01-18T06:01:23.409Z,102472.38
2023-01-18T06:03:52.075Z,102442.88
2023-01-18T06:06:21.017Z,102420.81
2023-01-18T06:08:49.576Z,102459.19
2023-01-18T06:11:20.647Z,102456.50
2023-01-18T06:13:49.597Z,102471.00
2023-01-18T06:16:18.273Z,102437.91
2023-01-18T06:18:47.110Z,102463.09
2023-01-18T06:21:15.919Z,102313.38
2023-01-18T06:23:44.629Z,102431.69
2023-01-18T06:26:13.120Z,102430.91
2023-01-18T06:28:42.183Z,102437.63
2023-01-18T06:31:12.155Z,102461.13
2023-01-18T06:33:40.912Z,102424.25
2023-01-18T06:36:10.945Z,102410.97
2023-01-18T06:38:39.704Z,102426.06
2023-01-18T06:41:10.014Z,102385.47
2023-01-18T06:43:38.703Z,102434.72
2023-01-18T06:46:10.400Z,102423.09
2023-01-18T06:48:41.617Z,102455.19
2023-01-18T06:51:10.370Z,102328.59
2023-01-18T06:53:39.512Z,102441.53
2023-01-18T06:56:11.087Z,102417.56
2023-01-18T06:58:39.942Z,102429.81
2023-01-18T07:01:09.108Z,102407.41
2023-01-18T07:03:39.520Z,102396.09
2023-01-18T07:06:08.357Z,102425.47
2023-01-18T07:08:36.736Z,102394.03
2023-01-18T07:11:08.071Z,102428.81
2023-01-18T07:13:40.619Z,102285.66
2023-01-18T07:16:12.395Z,102414.72
2023-01-18T07:18:44.678Z,102456.81
2023-01-18T07:21:15.258Z,102453.25
2023-01-18T07:23:44.537Z,102407.84
2023-01-18T07:26:17.857Z,102436.28
2023-01-18T07:28:47.901Z,102393.09
2023-01-18T07:31:17.815Z,102416.19
2023-01-18T07:33:46.496Z,102284.75
2023-01-18T07:36:15.096Z,102319.16
2023-01-18T07:38:43.856Z,102407.09
2023-01-18T07:41:15.665Z,102426.84
2023-01-18T07:43:46.619Z,102396.09
2023-01-18T07:46:22.729Z,102420.84
2023-01-18T07:48:54.419Z,102369.09
2023-01-18T07:51:23.887Z,102423.50
2023-01-18T07:53:56.011Z,102383.31
2023-01-18T07:56:26.596Z,102413.50
2023-01-18T07:58:56.496Z,102396.41
2023-01-18T08:01:25.585Z,102392.75
2023-01-18T08:03:55.451Z,102379.75
2023-01-18T08:06:26.047Z,102379.53
2023-01-18T08:08:57.821Z,102351.34
2023-01-18T08:11:27.186Z,102402.28
2023-01-18T08:13:55.944Z,102394.16
2023-01-18T08:16:25.205Z,102371.53
2023-01-18T08:18:55.310Z,102385.94
2023-01-18T08:21:24.163Z,102387.94
2023-01-18T08:23:55.991Z,102378.38
2023-01-18T08:26:24.549Z,102380.69
2023-01-18T08:28:53.311Z,102329.19
2023-01-18T08:31:23.177Z,102335.63
2023-01-18T08:33:51.764Z,102348.94
2023-01-18T08:36:23.236Z,102373.13
2023-01-18T08:38:53.786Z,102388.56
2023-01-18T08:41:24.716Z,102356.81
2023-01-18T08:43:53.535Z,102369.59
2023-01-18T08:46:23.068Z,102280.47
2023-01-18T08:48:56.941Z,102336.19
2023-01-18T08:51:28.103Z,102348.72
2023-01-18T08:53:57.898Z,102374.09
2023-01-18T08:56:27.336Z,102338.66
2023-01-18T08:58:56.625Z,102348.44
2023-01-18T09:01:27.331Z,102362.56
2023-01-18T09:03:56.935Z,102338.81
2023-01-18T09:06:26.575Z,102342.94
2023-01-18T09:08:55.377Z,102351.03
2023-01-18T09:11:23.942Z,102343.47
2023-01-18T09:14:01.231Z,102364.81
2023-01-18T09:16:32.046Z,102357.69
2023-01-18T09:19:00.801Z,102348.69
2023-01-18T09:21:29.577Z,102330.47
2023-01-18T09:24:00.002Z,102345.78
2023-01-18T09:26:29.717Z,102250.66
2023-01-18T09:28:58.324Z,102335.03
2023-01-18T09:31:29.593Z,102366.91
2023-01-18T09:34:17.428Z,102334.69
2023-01-18T09:36:50.158Z,102315.81
2023-01-18T09:39:20.705Z,102353.44
2023-01-18T09:41:59.163Z,102330.69
2023-01-18T09:44:39.583Z,102375.31
2023-01-18T09:47:14.415Z,102367.34
2023-01-18T09:49:57.056Z,102351.78
2023-01-18T09:52:50.164Z,102355.44
2023-01-18T09:55:39.006Z,102291.63
2023-01-18T09:58:19.976Z,102344.91
2023-01-18T10:00:50.282Z,102296.53
2023-01-18T10:03:21.021Z,102283.84
2023-01-18T10:06:16.680Z,102300.47
2023-01-18T10:08:55.199Z,102308.69
2023-01-18T10:11:34.776Z,102345.31
2023-01-18T10:14:16.196Z,102288.59
2023-01-18T10:16:49.245Z,102228.25
2023-01-18T10:19:25.956Z,102299.44
2023-01-18T10:22:07.682Z,102334.50
2023-01-18T10:24:39.255Z,102331.50
2023-01-18T10:27:36.664Z,102302.72
2023-01-18T10:30:23.181Z,102288.63
2023-01-18T10:32:59.957Z,102258.78
2023-01-18T10:35:39.377Z,102269.72
2023-01-18T10:38:16.038Z,102272.31
2023-01-18T10:40:51.183Z,102322.72
2023-01-18T10:43:25.745Z,102297.78
2023-01-18T10:45:55.327Z,102307.34
2023-01-18T10:48:33.239Z,102326.53
2023-01-18T10:51:07.440Z,102218.91
2023-01-18T10:53:39.219Z,102210.09
2023-01-18T10:56:10.956Z,102344.06
2023-01-18T10:58:44.827Z,102334.53
2023-01-18T11:01:44.107Z,102299.41
2023-01-18T11:04:26.320Z,102296.47
2023-01-18T11:07:01.767Z,102298.91
2023-01-18T11:09:56.267Z,102300.50
2023-01-18T11:12:45.077Z,102325.22
2023-01-18T11:15:16.833Z,102329.09
2023-01-18T11:17:58.121Z,102290.63
2023-01-18T11:20:37.678Z,102270.41
2023-01-18T11:23:14.899Z,102316.28
2023-01-18T11:26:13.704Z,102315.00
2023-01-18T11:29:06.281Z,102314.91
2023-01-18T11:31:48.032Z,102282.16
2023-01-18T11:34:32.675Z,102275.53
2023-01-18T11:37:02.588Z,102244.97
2023-01-18T11:39:35.366Z,102302.22
2023-01-18T11:42:14.901Z,102295.88
2023-01-18T11:45:05.499Z,102213.50
2023-01-18T11:47:58.026Z,102254.91
2023-01-18T11:50:47.472Z,102285.66
2023-01-18T11:53:57.438Z,102289.06
2023-01-18T11:56:26.247Z,102292.78
2023-01-18T11:58:56.463Z,102288.06
2023-01-18T12:01:44.397Z,102298.50
2023-01-18T12:04:46.870Z,102295.72
2023-01-18T12:07:22.670Z,102237.53
2023-01-18T12:09:56.923Z,102236.03
2023-01-18T12:12:45.661Z,102283.13
2023-01-18T12:15:25.995Z,102277.69
2023-01-18T12:18:13.219Z,102184.97
2023-01-18T12:20:54.673Z,102234.88
2023-01-18T12:23:26.312Z,102297.75
2023-01-18T12:26:12.136Z,102266.63
2023-01-18T12:29:07.900Z,102274.63
2023-01-18T12:31:59.691Z,102270.28
2023-01-18T12:34:59.792Z,102268.28
2023-01-18T12:38:13.651Z,102256.34
2023-01-18T12:40:59.093Z,102226.22
2023-01-18T12:43:51.957Z,102254.81
2023-01-18T12:46:33.246Z,102257.09
2023-01-18T12:49:19.747Z,102090.41
2023-01-18T12:52:13.014Z,102242.63
2023-01-18T12:54:56.335Z,102194.47
2023-01-18T12:57:26.538Z,102183.72
2023-01-18T13:00:21.005Z,102246.19
2023-01-18T13:02:52.586Z,102244.00
2023-01-18T13:05:36.082Z,102209.22
2023-01-18T13:08:27.449Z,102244.00
2023-01-18T13:11:21.775Z,102212.00
2023-01-18T13:13:59.098Z,102224.19
2023-01-18T13:16:51.376Z,102179.31
2023-01-18T13:19:30.817Z,102218.94
2023-01-18T13:22:46.032Z,102255.53
2023-01-18T13:25:25.123Z,102249.44
2023-01-18T13:28:15.075Z,102249.44
2023-01-18T13:30:57.253Z,102217.53
2023-01-18T13:33:30.646Z,102226.56
2023-01-18T13:36:13.195Z,102257.53
2023-01-18T13:38:52.832Z,101990.28
2023-01-18T13:41:28.641Z,102201.00
2023-01-18T13:44:02.734Z,102253.97
2023-01-18T13:46:34.777Z,102246.84
2023-01-18T13:49:36.310Z,102241.41
2023-01-18T13:52:31.595Z,102229.34
2023-01-18T13:55:20.174Z,102199.72
2023-01-18T13:57:56.515Z,102129.75
2023-01-18T14:00:28.060Z,102207.97
2023-01-18T14:03:17.281Z,102218.28
2023-01-18T14:05:49.414Z,102169.88
2023-01-18T14:08:33.784Z,102177.25
2023-01-18T14:11:28.478Z,102211.75
2023-01-18T14:14:01.797Z,102221.19
2023-01-18T14:16:41.857Z,102156.06
2023-01-18T14:19:23.759Z,102194.44
2023-01-18T14:22:19.264Z,102134.75
2023-01-18T14:25:03.432Z,102195.72
2023-01-18T14:27:41.770Z,102077.28
2023-01-18T14:30:19.691Z,102186.97
2023-01-18T14:33:06.051Z,102143.47
2023-01-18T14:35:37.594Z,102128.75
2023-01-18T14:38:18.556Z,102149.56
2023-01-18T14:40:52.188Z,102140.66
2023-01-18T14:43:43.095Z,102143.22
2023-01-18T14:46:33.638Z,102174.16
2023-01-18T14:49:02.532Z,102152.47
2023-01-18T14:51:31.596Z,102050.50
2023-01-18T14:54:02.811Z,102144.72
2023-01-18T14:56:35.791Z,102150.94
2023-01-18T14:59:19.136Z,101882.63
2023-01-18T15:02:18.521Z,102157.41
2023-01-18T15:04:48.249Z,102147.38
2023-01-18T15:07:34.648Z,102150.66
2023-01-18T15:10:04.429Z,102124.03
2023-01-18T15:12:34.257Z,102132.78
2023-01-18T15:15:10.428Z,102157.28
2023-01-18T15:17:39.381Z,102157.03
2023-01-18T15:20:15.307Z,102100.69
2023-01-18T15:22:44.610Z,102047.78
2023-01-18T15:25:28.334Z,102145.34
2023-01-18T15:28:06.441Z,102152.47
2023-01-18T15:30:40.607Z,102112.75
2023-01-18T15:33:10.950Z,102101.72
2023-01-18T15:35:40.517Z,102116.56
2023-01-18T15:38:12.120Z,102094.47
2023-01-18T15:40:53.944Z,102135.59
2023-01-18T15:43:31.682Z,102158.44
2023-01-18T15:46:01.806Z,102123.25
2023-01-18T15:48:38.078Z,102134.03
2023-01-18T15:51:09.818Z,102114.63
2023-01-18T15:53:53.365Z,102040.69
2023-01-18T15:56:31.167Z,102162.72
2023-01-18T15:59:03.063Z,102065.28
2023-01-18T16:01:36.605Z,102103.94
2023-01-18T16:04:22.599Z,102135.91
2023-01-18T16:06:51.269Z,102097.34
2023-01-18T16:09:23.938Z,102022.31
2023-01-18T16:11:54.916Z,102008.09
2023-01-18T16:14:35.261Z,102088.72
2023-01-18T16:17:05.276Z,102112.03
2023-01-18T16:19:36.941Z,102121.06
2023-01-18T16:22:18.303Z,102105.34
2023-01-18T16:24:52.644Z,102003.78
2023-01-18T16:27:24.489Z,102123.97
2023-01-18T16:30:23.545Z,102098.59
2023-01-18T16:32:52.787Z,102067.88
2023-01-18T16:35:24.060Z,102117.63
2023-01-18T16:37:52.875Z,102078.25
2023-01-18T16:40:23.642Z,102038.44
2023-01-18T16:43:05.880Z,101938.22
2023-01-18T16:45:38.724Z,101973.31
2023-01-18T16:48:10.668Z,102108.34
2023-01-18T16:50:39.401Z,101997.25
2023-01-18T16:53:08.205Z,102113.00
2023-01-18T16:55:37.608Z,102119.88
2023-01-18T16:58:06.351Z,102033.38
2023-01-18T17:01:06.578Z,102115.69
2023-01-18T17:03:36.778Z,102110.91
2023-01-18T17:06:05.468Z,102052.88
2023-01-18T17:08:35.572Z,102086.47
2023-01-18T17:11:05.828Z,102049.53
2023-01-18T17:13:35.169Z,101995.41
2023-01-18T17:16:04.230Z,102071.03
2023-01-18T17:18:32.847Z,102029.16
2023-01-18T17:21:01.670Z,102054.50
2023-01-18T17:23:30.265Z,102083.72
2023-01-18T17:26:00.304Z,102071.50
2023-01-18T17:28:31.164Z,102053.25
2023-01-18T17:30:59.595Z,101956.16
2023-01-18T17:33:28.511Z,102078.81
2023-01-18T17:35:57.234Z,102114.53
2023-01-18T17:38:29.247Z,102111.44
2023-01-18T17:40:59.031Z,102076.41
2023-01-18T17:43:33.771Z,102088.19
2023-01-18T17:46:06.867Z,101938.97
2023-01-18T17:48:35.644Z,102060.91
2023-01-18T17:51:08.991Z,102076.53
2023-01-18T17:53:39.152Z,101993.44
2023-01-18T17:56:19.174Z,102068.66
2023-01-18T17:58:52.853Z,102047.91
2023-01-18T18:01:22.061Z,102090.75
2023-01-18T18:03:53.097Z,102030.63
2023-01-18T18:06:31.017Z,102069.66
2023-01-18T18:09:03.809Z,101961.41
2023-01-18T18:11:32.526Z,102061.97
2023-01-18T18:14:02.337Z,101962.88
2023-01-18T18:16:32.831Z,101973.38
2023-01-18T18:19:03.071Z,102072.16
2023-01-18T18:21:31.677Z,102088.25
2023-01-18T18:24:00.313Z,102070.66
2023-01-18T18:26:29.072Z,102089.91
2023-01-18T18:28:57.921Z,102083.19
2023-01-18T18:31:26.619Z,102063.25
2023-01-18T18:33:55.388Z,102063.78
2023-01-18T18:36:27.976Z,102068.75
2023-01-18T18:39:02.189Z,101994.13
2023-01-18T18:41:31.021Z,102069.00
2023-01-18T18:43:59.811Z,102032.44
2023-01-18T18:46:28.898Z,102082.06
2023-01-18T18:48:58.191Z,102006.31
2023-01-18T18:51:27.040Z,102067.44
2023-01-18T18:53:55.640Z,102019.47
2023-01-18T18:56:24.691Z,102081.59
2023-01-18T18:58:53.210Z,102033.09
2023-01-18T19:01:25.113Z,102031.63
2023-01-18T19:03:54.819Z,102060.72
2023-01-18T19:06:25.982Z,102061.59
2023-01-18T19:08:54.840Z,102079.53
2023-01-18T19:11:23.821Z,102091.16
2023-01-18T19:13:54.653Z,102031.88
2023-01-18T19:16:23.734Z,102038.13
2023-01-18T19:18:52.691Z,102086.03
2023-01-18T19:21:21.315Z,102018.81
2023-01-18T19:23:50.132Z,102058.81
2023-01-18T19:26:18.908Z,102059.47
2023-01-18T19:28:48.086Z,102013.09
2023-01-18T19:31:17.101Z,102012.09
2023-01-18T19:33:45.856Z,102059.34
2023-01-18T19:36:16.867Z,102056.78
2023-01-18T19:38:52.581Z,102051.19
2023-01-18T19:41:26.801Z,101973.59
2023-01-18T19:43:55.573Z,102057.78
2023-01-18T19:46:24.293Z,102072.16
2023-01-18T19:49:00.314Z,102058.31
2023-01-18T19:51:29.500Z,102058.09
2023-01-18T19:54:01.869Z,102067.28
2023-01-18T19:56:31.213Z,102063.94
2023-01-18T19:58:59.847Z,102051.63
2023-01-18T20:01:36.397Z,102050.34
2023-01-18T20:04:08.780Z,102076.41
2023-01-18T20:06:40.883Z,102044.84
2023-01-18T20:09:19.043Z,102061.16
2023-01-18T20:11:49.739Z,102079.81
2023-01-18T20:14:19.148Z,102039.50
2023-01-18T20:16:48.688Z,102044.44
2023-01-18T20:19:18.507Z,102039.34
2023-01-18T20:21:47.452Z,102044.13
2023-01-18T20:24:17.273Z,102050.91
2023-01-18T20:26:45.988Z,101983.22
2023-01-18T20:29:14.598Z,102089.47
2023-01-18T20:31:49.584Z,102061.50
2023-01-18T20:34:18.732Z,102079.59
2023-01-18T20:36:50.828Z,102044.19
2023-01-18T20:39:20.788Z,102032.97
2023-01-18T20:41:50.968Z,102047.84
2023-01-18T20:44:19.927Z,102072.22
2023-01-18T20:46:49.329Z,102014.88
2023-01-18T20:49:22.464Z,102029.06
2023-01-18T20:51:56.096Z,101980.28
2023-01-18T20:54:24.850Z,102077.47
2023-01-18T20:56:53.806Z,102063.19
2023-01-18T20:59:22.610Z,102040.34
2023-01-18T21:01:51.487Z,102011.03
2023-01-18T21:04:22.804Z,102042.81
2023-01-18T21:06:51.453Z,102060.31
2023-01-18T21:09:20.428Z,102053.13
2023-01-18T21:11:49.067Z,102042.75
2023-01-18T21:14:17.769Z,102033.16
2023-01-18T21:16:46.797Z,102048.19
2023-01-18T21:19:15.581Z,101983.28
2023-01-18T21:21:45.451Z,102069.91
2023-01-18T21:24:14.391Z,102031.66
2023-01-18T21:26:43.348Z,102065.97
2023-01-18T21:29:12.091Z,102068.47
2023-01-18T21:31:44.006Z,102069.97
2023-01-18T21:34:12.831Z,102097.25
2023-01-18T21:36:41.650Z,102031.44
2023-01-18T21:39:19.219Z,102096.25
2023-01-18T21:42:06.463Z,102065.13
2023-01-18T21:44:54.068Z,102072.88
2023-01-18T21:47:23.609Z,102051.69
2023-01-18T21:50:17.467Z,102058.16
2023-01-18T21:53:04.708Z,102037.19
2023-01-18T21:55:33.797Z,102093.84
2023-01-18T21:58:20.629Z,102062.94
2023-01-18T22:00:49.454Z,102101.34
2023-01-18T22:03:19.188Z,102092.50
2023-01-18T22:05:48.693Z,102047.84
2023-01-18T22:08:17.333Z,102064.66
2023-01-18T22:10:49.167Z,102076.69
2023-01-18T22:13:17.827Z,102018.72
2023-01-18T22:15:47.793Z,102065.63
2023-01-18T22:18:16.685Z,102052.03
2023-01-18T22:20:45.347Z,102053.03
2023-01-18T22:23:14.088Z,102070.41
2023-01-18T22:25:42.947Z,101987.75
2023-01-18T22:28:11.749Z,102072.00
2023-01-18T22:30:41.539Z,102072.88
2023-01-18T22:33:10.267Z,102089.78
2023-01-18T22:35:39.073Z,102070.59
2023-01-18T22:38:10.449Z,102081.25
2023-01-18T22:40:39.529Z,102082.53
2023-01-18T22:43:10.830Z,102093.13
2023-01-18T22:45:39.573Z,102059.69
2023-01-18T22:48:08.491Z,102100.66
2023-01-18T22:50:37.080Z,102004.56
2023-01-18T22:53:06.610Z,102080.31
2023-01-18T22:55:35.523Z,102032.63
2023-01-18T22:58:04.510Z,102086.22
2023-01-18T23:00:33.358Z,102076.38
2023-01-18T23:03:02.128Z,102115.78
2023-01-18T23:05:31.140Z,102011.41
2023-01-18T23:07:59.968Z,102111.44
2023-01-18T23:10:28.950Z,102075.25
2023-01-18T23:12:57.736Z,102110.66
2023-01-18T23:15:44.637Z,102084.13
2023-01-18T23:18:13.735Z,102069.31
2023-01-18T23:20:42.679Z,102049.00
2023-01-18T23:23:11.493Z,102055.88
2023-01-18T23:25:40.390Z,102067.50
2023-01-18T23:28:09.030Z,102055.53
2023-01-18T23:30:37.606Z,102052.03
2023-01-18T23:33:06.407Z,102037.88
2023-01-18T23:35:35.080Z,102035.00
2023-01-18T23:38:07.154Z,102066.47
2023-01-18T23:40:55.687Z,102032.38
2023-01-18T23:43:42.645Z,102029.97
2023-01-18T23:46:29.904Z,102070.28
2023-01-18T23:49:16.610Z,102058.44
2023-01-18T23:52:03.652Z,102075.41
2023-01-18T23:54:32.292Z,102061.44
2023-01-18T23:57:01.308Z,102102.66
2023-01-18T23:59:30.332Z,102064.44
